Time;durP1;ratioP1;P1;durP2;ratioP2;P2;SDS_P1;SDS_P2;PMS_P1;PMS_P2;Temp;Humidity;BMP_temperature;BMP_pressure;BME280_temperature;BME280_humidity;BME280_pressure;Samples;Min_cycle;Max_cycle;Signal;HPM_P1;HPM_P2
2023/07/07 00:00:35;;;;;;;1999.90;999.90;;;;;;;19.26;100.00;98258.50;5090580;28;20161;-75
2023/07/07 00:03:00;;;;;;;1999.90;999.90;;;;;;;19.27;100.00;98271.25;5090508;28;20386;-74
2023/07/07 00:05:28;;;;;;;1999.90;999.90;;;;;;;19.25;100.00;98269.97;5090495;28;20024;-75
2023/07/07 00:07:53;;;;;;;1999.90;999.90;;;;;;;19.27;100.00;98270.41;5090575;28;20408;-75
2023/07/07 00:10:19;;;;;;;1999.90;999.90;;;;;;;19.24;100.00;98273.88;5090405;28;20020;-75
2023/07/07 00:12:45;;;;;;;1999.90;999.90;;;;;;;19.25;100.00;98272.75;5090403;28;20032;-76
2023/07/07 00:15:11;;;;;;;1999.90;999.90;;;;;;;19.22;100.00;98274.25;5090533;28;20494;-75
2023/07/07 00:17:37;;;;;;;1999.90;999.90;;;;;;;19.19;100.00;98265.81;5090326;28;20052;-74
2023/07/07 00:20:07;;;;;;;1999.90;999.90;;;;;;;19.24;100.00;98269.16;5090230;28;20121;-75
2023/07/07 00:22:35;;;;;;;1999.90;999.90;;;;;;;19.18;100.00;98264.16;5090479;28;20637;-75
2023/07/07 00:25:04;;;;;;;1999.90;999.90;;;;;;;19.11;100.00;98270.28;5090805;28;20490;-75
2023/07/07 00:27:30;;;;;;;1999.90;999.90;;;;;;;19.16;100.00;98267.31;5090418;28;20032;-75
2023/07/07 00:29:56;;;;;;;1999.90;999.90;;;;;;;19.11;100.00;98258.38;5090276;28;20052;-76
2023/07/07 00:32:21;;;;;;;1999.90;999.90;;;;;;;19.14;100.00;98269.59;5090168;28;20039;-74
2023/07/07 00:34:47;;;;;;;1999.90;999.90;;;;;;;19.24;100.00;98277.47;5091042;28;20036;-75
2023/07/07 00:37:12;;;;;;;1999.90;999.90;;;;;;;19.30;100.00;98271.69;5092002;28;20024;-75
2023/07/07 00:39:38;;;;;;;1999.90;999.90;;;;;;;19.29;100.00;98278.41;5092824;28;20013;-75
2023/07/07 00:42:03;;;;;;;1999.90;999.90;;;;;;;19.30;100.00;98255.03;5091951;28;20020;-74
2023/07/07 00:45:07;;;;;;;1999.90;999.90;;;;;;;19.21;100.00;98261.53;5090468;28;20028;-76
2023/07/07 00:47:40;;;;;;;1999.90;999.90;;;;;;;19.11;100.00;98256.41;5094198;28;20074;-77
2023/07/07 00:50:07;;;;;;;1999.90;999.90;;;;;;;19.13;100.00;98273.53;5094012;28;20032;-75
2023/07/07 00:52:34;;;;;;;1999.90;999.90;;;;;;;19.15;100.00;98268.44;5088684;28;20384;-75
2023/07/07 00:55:00;;;;;;;1999.90;999.90;;;;;;;19.18;100.00;98275.25;5090446;28;20060;-75
2023/07/07 00:57:25;;;;;;;1999.90;999.90;;;;;;;19.13;100.00;98272.72;5089966;28;20055;-75
2023/07/07 00:59:51;;;;;;;1999.90;999.90;;;;;;;19.12;100.00;98271.09;5090009;28;20102;-74
2023/07/07 01:02:24;;;;;;;1999.90;999.90;;;;;;;18.96;100.00;98262.63;5090303;28;20035;-75
2023/07/07 01:04:52;;;;;;;1999.90;999.90;;;;;;;18.84;100.00;98276.44;5093733;28;20039;-76
2023/07/07 01:07:39;;;;;;;1999.90;999.90;;;;;;;18.79;100.00;98273.09;5093603;28;20039;-74
2023/07/07 01:10:05;;;;;;;1999.90;999.90;;;;;;;18.79;100.00;98271.13;5093328;28;20080;-75
2023/07/07 01:12:31;;;;;;;1999.90;999.90;;;;;;;18.83;100.00;98272.03;5093488;28;20028;-74
2023/07/07 01:14:57;;;;;;;1999.90;999.90;;;;;;;18.83;100.00;98272.03;5093415;28;20028;-75
2023/07/07 01:17:36;;;;;;;1999.90;999.90;;;;;;;18.85;100.00;98266.19;5093040;28;20028;-76
2023/07/07 01:20:14;;;;;;;1999.90;999.90;;;;;;;18.90;100.00;98268.72;5093414;28;20404;-76
2023/07/07 01:23:03;;;;;;;1999.90;999.90;;;;;;;18.91;100.00;98260.06;5093346;28;20473;-75
2023/07/07 01:26:06;;;;;;;1999.90;999.90;;;;;;;18.96;100.00;98257.06;5093468;28;20028;-75
2023/07/07 01:29:03;;;;;;;1999.90;999.90;;;;;;;18.97;100.00;98255.94;5093332;28;20031;-75
2023/07/07 01:32:01;;;;;;;1999.90;999.90;;;;;;;18.93;100.00;98259.72;5093184;28;20028;-76
2023/07/07 01:34:27;;;;;;;1999.90;999.90;;;;;;;18.88;100.00;98263.53;5092932;28;20044;-76
2023/07/07 01:36:52;;;;;;;1999.90;999.90;;;;;;;18.86;100.00;98260.28;5092908;28;20020;-75
2023/07/07 01:39:17;;;;;;;1999.90;999.90;;;;;;;18.84;100.00;98262.59;5092945;28;20124;-76
2023/07/07 01:42:10;;;;;;;1999.90;999.90;;;;;;;18.88;100.00;98266.31;5092936;28;20024;-76
2023/07/07 01:44:47;;;;;;;1999.90;999.90;;;;;;;18.80;100.00;98269.97;5092981;28;20028;-76
2023/07/07 01:47:19;;;;;;;1999.90;999.90;;;;;;;18.73;100.00;98266.94;5092521;28;20047;-75
2023/07/07 01:49:49;;;;;;;1999.90;999.90;;;;;;;18.72;100.00;98262.56;5092797;28;20024;-75
2023/07/07 01:52:26;;;;;;;1999.90;999.90;;;;;;;18.68;100.00;98262.41;5092851;28;20034;-75
2023/07/07 01:54:58;;;;;;;1999.90;999.90;;;;;;;18.73;100.00;98253.09;5093149;28;20044;-75
2023/07/07 01:57:27;;;;;;;1999.90;999.90;;;;;;;18.58;100.00;98250.94;5091283;28;20476;-75
2023/07/07 01:59:53;;;;;;;1999.90;999.90;;;;;;;18.65;100.00;98262.28;5092595;28;20498;-75
2023/07/07 02:02:19;;;;;;;1999.90;999.90;;;;;;;18.66;100.00;98259.19;5092653;28;20111;-75
2023/07/07 02:04:44;;;;;;;1999.90;999.90;;;;;;;18.68;100.00;98258.81;5092553;28;20404;-75
2023/07/07 02:07:10;;;;;;;1999.90;999.90;;;;;;;18.60;100.00;98256.97;5092457;28;20077;-75
2023/07/07 02:09:36;;;;;;;1999.90;999.90;;;;;;;18.60;100.00;98263.31;5092568;28;20032;-75
2023/07/07 02:12:02;;;;;;;1999.90;999.90;;;;;;;18.60;100.00;98259.72;5092463;28;20017;-75
2023/07/07 02:14:28;;;;;;;1999.90;999.90;;;;;;;18.62;100.00;98262.97;5091988;28;20030;-75
2023/07/07 02:16:53;;;;;;;1999.90;999.90;;;;;;;18.58;100.00;98262.00;5092268;28;20365;-74
2023/07/07 02:19:18;;;;;;;1999.90;999.90;;;;;;;18.45;100.00;98268.63;5092128;28;20020;-74
2023/07/07 02:21:44;;;;;;;1999.90;999.90;;;;;;;18.41;100.00;98257.44;5092554;28;20031;-75
2023/07/07 02:24:09;;;;;;;1999.90;999.90;;;;;;;18.40;100.00;98264.09;5096053;28;20030;-76
2023/07/07 02:26:35;;;;;;;1999.90;999.90;;;;;;;18.45;100.00;98263.09;5093311;28;20099;-74
2023/07/07 02:29:00;;;;;;;1999.90;999.90;;;;;;;18.45;100.00;98249.25;5090276;28;20051;-74
2023/07/07 02:31:26;;;;;;;1999.90;999.90;;;;;;;18.44;100.00;98250.38;5091523;28;20039;-75
2023/07/07 02:33:53;;;;;;;1999.90;999.90;;;;;;;18.39;100.00;98240.31;5091509;28;20030;-74
2023/07/07 02:36:19;;;;;;;1999.90;999.90;;;;;;;18.38;100.00;98248.97;5091495;28;20023;-74
2023/07/07 02:38:45;;;;;;;1999.90;999.90;;;;;;;18.28;100.00;98249.38;5091808;28;20024;-74
2023/07/07 02:41:10;;;;;;;1999.90;999.90;;;;;;;18.24;100.00;98249.25;5091773;28;20024;-74
2023/07/07 02:43:36;;;;;;;1999.90;999.90;;;;;;;18.31;100.00;98254.25;5091902;28;20605;-74
2023/07/07 02:46:02;;;;;;;1999.90;999.90;;;;;;;18.26;100.00;98254.47;5090470;28;20415;-74
2023/07/07 02:48:27;;;;;;;1999.90;999.90;;;;;;;18.15;100.00;98242.97;5092958;28;20040;-74
2023/07/07 02:51:04;;;;;;;1999.90;999.90;;;;;;;18.23;100.00;98257.91;5084405;28;20029;-76
2023/07/07 02:53:35;;;;;;;1999.90;999.90;;;;;;;18.23;100.00;98258.69;5084767;28;20032;-75
2023/07/07 02:56:01;;;;;;;1999.90;999.90;;;;;;;18.27;100.00;98262.41;5093409;28;20090;-76
2023/07/07 02:58:26;;;;;;;1999.90;999.90;;;;;;;18.23;100.00;98257.91;5074913;28;20024;-76
2023/07/07 03:00:53;;;;;;;1999.90;999.90;;;;;;;18.26;100.00;98266.34;5071842;28;20112;-75
2023/07/07 03:03:20;;;;;;;1999.90;999.90;;;;;;;18.30;100.00;98272.00;5071036;28;20029;-75
2023/07/07 03:05:46;;;;;;;1999.90;999.90;;;;;;;18.28;100.00;98271.53;5071650;28;20067;-77
2023/07/07 03:08:12;;;;;;;1999.90;999.90;;;;;;;18.21;100.00;98255.47;5071782;28;20024;-76
2023/07/07 03:10:39;;;;;;;1999.90;999.90;;;;;;;18.26;100.00;98273.84;5091534;28;20020;-76
2023/07/07 03:13:05;;;;;;;1999.90;999.90;;;;;;;18.28;100.00;98268.78;5091257;28;20089;-76
2023/07/07 03:15:38;;;;;;;1999.90;999.90;;;;;;;18.21;100.00;98274.84;5091435;28;20032;-76
2023/07/07 03:18:08;;;;;;;1999.90;999.90;;;;;;;18.19;100.00;98277.97;5091461;28;20056;-75
2023/07/07 03:20:35;;;;;;;1999.90;999.90;;;;;;;18.08;100.00;98262.88;5090469;28;20028;-75
2023/07/07 03:23:01;;;;;;;1999.90;999.90;;;;;;;18.11;100.00;98270.50;5090707;28;20795;-76
2023/07/07 03:25:27;;;;;;;1999.90;999.90;;;;;;;18.02;100.00;98263.41;5090672;28;20107;-76
2023/07/07 03:27:53;;;;;;;1999.90;999.90;;;;;;;18.07;100.00;98269.56;5090634;28;20165;-76
2023/07/07 03:30:18;;;;;;;1999.90;999.90;;;;;;;18.07;100.00;98264.00;5090626;28;20024;-76
2023/07/07 03:32:44;;;;;;;1999.90;999.90;;;;;;;18.11;100.00;98275.25;5090801;28;20047;-76
2023/07/07 03:35:10;;;;;;;1999.90;999.90;;;;;;;18.16;100.00;98277.81;5090788;28;20031;-74
2023/07/07 03:37:38;;;;;;;1999.90;999.90;;;;;;;18.31;100.00;98285.53;5089401;28;20095;-71
2023/07/07 03:40:06;;;;;;;1999.90;999.90;;;;;;;18.35;100.00;98285.66;5090372;28;20881;-73
2023/07/07 03:42:32;;;;;;;1999.90;999.90;;;;;;;18.33;100.00;98283.22;5090532;28;20031;-75
2023/07/07 03:44:58;;;;;;;1999.90;999.90;;;;;;;18.32;100.00;98283.56;5087449;28;20024;-70
2023/07/07 03:47:24;;;;;;;1999.90;999.90;;;;;;;18.33;100.00;98283.22;5071615;28;20041;-85
2023/07/07 03:49:49;;;;;;;1999.90;999.90;;;;;;;18.38;100.00;98301.59;5085703;28;20028;-72
2023/07/07 03:52:15;;;;;;;1999.90;999.90;;;;;;;18.32;100.00;98298.25;5090258;28;20028;-74
2023/07/07 03:54:41;;;;;;;1999.90;999.90;;;;;;;18.42;100.00;98300.56;5090874;28;20111;-74
2023/07/07 03:57:07;;;;;;;1999.90;999.90;;;;;;;18.50;100.00;98307.25;5090268;28;20117;-71
2023/07/07 03:59:33;;;;;;;1999.90;999.90;;;;;;;18.60;100.00;98309.63;5090114;28;20020;-72
2023/07/07 04:01:59;;;;;;;1999.90;999.90;;;;;;;18.59;100.00;98308.78;5090340;28;20020;-73
2023/07/07 04:04:25;;;;;;;1999.90;999.90;;;;;;;18.68;100.00;98306.75;5090301;28;20030;-74
2023/07/07 04:06:54;;;;;;;1999.90;999.90;;;;;;;18.73;100.00;98312.09;5092398;28;20020;-72
2023/07/07 04:09:20;;;;;;;1999.90;999.90;;;;;;;19.20;100.00;98311.81;5092307;28;20457;-74
2023/07/07 04:11:45;;;;;;;1999.90;999.90;;;;;;;19.45;100.00;98307.94;5090349;28;20115;-75
2023/07/07 04:14:10;;;;;;;1999.90;999.90;;;;;;;19.44;100.00;98311.88;5090214;28;20035;-75
2023/07/07 04:16:36;;;;;;;1999.90;999.90;;;;;;;19.30;100.00;98324.41;5090360;28;20431;-75
2023/07/07 04:19:02;;;;;;;1999.90;999.90;;;;;;;19.46;100.00;98319.84;5090082;28;20032;-73
2023/07/07 04:21:29;;;;;;;1999.90;999.90;;;;;;;19.65;100.00;98323.69;5090031;28;20016;-74
2023/07/07 04:23:58;;;;;;;1999.90;999.90;;;;;;;19.56;100.00;98324.97;5091009;28;20020;-75
2023/07/07 04:26:25;;;;;;;1999.90;999.90;;;;;;;19.55;100.00;98326.09;5090893;28;20024;-74
2023/07/07 04:28:52;;;;;;;1999.90;999.90;;;;;;;19.37;100.00;98338.53;5090223;28;20030;-80
2023/07/07 04:31:20;;;;;;;1999.90;999.90;;;;;;;19.19;100.00;98333.19;5091272;28;20085;-75
2023/07/07 04:33:46;;;;;;;1999.90;999.90;;;;;;;19.18;100.00;98326.00;5091073;28;20050;-76
2023/07/07 04:36:13;;;;;;;1999.90;999.90;;;;;;;19.24;100.00;98346.00;5096478;28;20032;-76
2023/07/07 04:38:38;;;;;;;1999.90;999.90;;;;;;;19.19;100.00;98335.16;5092809;28;20024;-77
2023/07/07 04:41:04;;;;;;;1999.90;999.90;;;;;;;19.34;100.00;98347.53;5095931;28;20039;-74
2023/07/07 04:43:30;;;;;;;1999.90;999.90;;;;;;;19.26;100.00;98350.06;5093438;28;20020;-76
2023/07/07 04:45:55;;;;;;;1999.90;999.90;;;;;;;19.26;100.00;98350.06;5092750;28;20484;-74
2023/07/07 04:48:22;;;;;;;1999.90;999.90;;;;;;;19.26;100.00;98354.81;5093289;28;20516;-75
2023/07/07 04:50:47;;;;;;;1999.90;999.90;;;;;;;19.39;100.00;98353.69;5093679;28;20024;-74
2023/07/07 04:53:13;;;;;;;1999.90;999.90;;;;;;;19.44;100.00;98355.47;5093861;28;20032;-76
2023/07/07 04:55:45;;;;;;;1999.90;999.90;;;;;;;19.65;100.00;98358.97;5094015;28;20093;-73
2023/07/07 04:58:11;;;;;;;1999.90;999.90;;;;;;;19.76;100.00;98351.81;5093446;28;20377;-74
2023/07/07 05:00:36;;;;;;;1999.90;999.90;;;;;;;19.78;100.00;98355.88;5093699;28;20041;-74
2023/07/07 05:03:01;;;;;;;1999.90;999.90;;;;;;;19.69;100.00;98357.94;5095374;28;20112;-73
2023/07/07 05:05:27;;;;;;;1999.90;999.90;;;;;;;19.57;100.00;98366.25;5095169;28;20028;-73
2023/07/07 05:07:52;;;;;;;1999.90;999.90;;;;;;;19.48;100.00;98361.97;5093930;28;20165;-74
2023/07/07 05:10:17;;;;;;;1999.90;999.90;;;;;;;19.55;100.00;98368.56;5093731;28;20053;-74
2023/07/07 05:12:43;;;;;;;1999.90;999.90;;;;;;;19.65;100.00;98368.13;5095372;28;20048;-73
2023/07/07 05:15:08;;;;;;;1999.90;999.90;;;;;;;19.80;100.00;98376.94;5093438;28;20507;-73
2023/07/07 05:17:34;;;;;;;1999.90;999.90;;;;;;;19.77;100.00;98373.69;5093219;28;20032;-73
2023/07/07 05:19:59;;;;;;;1999.90;999.90;;;;;;;19.81;100.00;98381.31;5093343;28;20024;-73
2023/07/07 05:22:24;;;;;;;1999.90;999.90;;;;;;;20.06;100.00;98385.75;5093390;28;20028;-73
2023/07/07 05:24:50;;;;;;;1999.90;999.90;;;;;;;20.41;100.00;98386.09;5093674;28;20059;-73
2023/07/07 05:27:15;;;;;;;1999.90;999.90;;;;;;;20.68;100.00;98397.28;5093589;28;20043;-73
2023/07/07 05:29:40;;;;;;;1999.90;999.90;;;;;;;20.86;100.00;98397.84;5091652;28;20050;-73
2023/07/07 05:32:06;;;;;;;1999.90;999.90;;;;;;;20.93;100.00;98395.25;5092194;28;20043;-73
2023/07/07 05:34:32;;;;;;;1999.90;999.90;;;;;;;21.13;100.00;98405.44;5092093;28;20500;-73
2023/07/07 05:36:57;;;;;;;1999.90;999.90;;;;;;;21.00;100.00;98411.34;5092911;28;20078;-72
2023/07/07 05:39:22;;;;;;;1999.90;999.90;;;;;;;20.86;100.00;98414.53;5092111;28;20024;-74
2023/07/07 05:41:48;;;;;;;1999.90;999.90;;;;;;;20.95;100.00;98412.44;5092433;28;20039;-75
2023/07/07 05:44:13;;;;;;;1999.90;999.90;;;;;;;21.27;100.00;98421.72;5091607;28;20032;-76
2023/07/07 05:46:38;;;;;;;1999.90;999.90;;;;;;;21.47;100.00;98425.47;5092931;28;20128;-75
2023/07/07 05:49:04;;;;;;;1999.90;999.90;;;;;;;21.48;100.00;98429.88;5092477;28;20044;-75
2023/07/07 05:51:29;;;;;;;1999.90;999.90;;;;;;;21.06;100.00;98421.88;5095331;28;20016;-74
2023/07/07 05:53:55;;;;;;;1999.90;999.90;;;;;;;20.81;100.00;98421.16;5096079;28;20046;-74
2023/07/07 05:56:24;;;;;;;1999.90;999.90;;;;;;;20.76;100.00;98417.81;5099365;28;20032;-75
2023/07/07 05:58:50;;;;;;;1999.90;999.90;;;;;;;20.71;100.00;98420.81;5097385;28;20073;-75
2023/07/07 06:01:16;;;;;;;1999.90;999.90;;;;;;;20.40;100.00;98431.72;5097879;28;20028;-76
2023/07/07 06:03:43;;;;;;;1999.90;999.90;;;;;;;20.85;100.00;98426.81;5099644;28;20140;-75
2023/07/07 06:06:08;;;;;;;1999.90;999.90;;;;;;;21.14;100.00;98429.34;5096503;28;20026;-75
2023/07/07 06:08:34;;;;;;;1999.90;999.90;;;;;;;21.49;100.00;98442.66;5094323;28;20020;-75
2023/07/07 06:10:59;;;;;;;1999.90;999.90;;;;;;;21.73;100.00;98442.53;5091010;28;20492;-77
2023/07/07 06:13:25;;;;;;;1999.90;999.90;;;;;;;22.28;99.74;98450.78;5076766;28;20111;-75
2023/07/07 06:15:54;;;;;;;1999.90;999.90;;;;;;;22.07;99.51;98450.25;5072662;28;20081;-75
2023/07/07 06:18:21;;;;;;;1999.90;999.90;;;;;;;21.97;100.00;98447.97;5072092;28;20091;-75
2023/07/07 06:21:02;;;;;;;1999.90;999.90;;;;;;;22.76;90.47;98454.34;5072151;28;20027;-74
2023/07/07 06:23:28;;;;;;;1999.90;999.90;;;;;;;22.97;87.75;98454.84;5080479;28;20032;-77
2023/07/07 06:25:54;;;;;;;1999.90;999.90;;;;;;;23.03;86.02;98452.56;5093034;28;20503;-74
2023/07/07 06:28:19;;;;;;;1999.90;999.90;;;;;;;22.98;84.39;98462.03;5092966;28;20472;-75
2023/07/07 06:30:49;;;;;;;1999.90;999.90;;;;;;;22.91;85.77;98459.91;5093733;28;20034;-77
2023/07/07 06:33:16;;;;;;;1999.90;999.90;;;;;;;23.34;84.74;98458.84;5092332;28;20052;-75
2023/07/07 06:35:42;;;;;;;1999.90;999.90;;;;;;;23.54;82.67;98461.66;5092073;28;20028;-76
2023/07/07 06:38:08;;;;;;;1999.90;999.90;;;;;;;23.43;79.07;98459.47;5092083;28;20034;-75
2023/07/07 06:40:34;;;;;;;1999.90;999.90;;;;;;;23.34;79.83;98461.63;5091938;28;20019;-74
2023/07/07 06:43:03;;;;;;;1999.90;999.90;;;;;;;23.34;78.08;98463.63;5091645;28;20024;-73
2023/07/07 06:45:29;;;;;;;1999.90;999.90;;;;;;;22.50;84.08;98456.88;5091902;28;20461;-72
2023/07/07 06:47:55;;;;;;;1999.90;999.90;;;;;;;22.53;84.86;98456.97;5090682;28;20040;-73
2023/07/07 06:50:38;;;;;;;1999.90;999.90;;;;;;;22.82;82.46;98467.66;5091588;28;20088;-75
2023/07/07 06:53:03;;;;;;;1999.90;999.90;;;;;;;22.76;83.50;98471.09;5091623;28;20020;-74
2023/07/07 06:55:29;;;;;;;1999.90;999.90;;;;;;;22.82;84.00;98475.22;5092158;28;20534;-76
2023/07/07 06:57:54;;;;;;;1999.90;999.90;;;;;;;22.59;85.54;98471.44;5091586;28;20039;-74
2023/07/07 07:00:21;;;;;;;1999.90;999.90;;;;;;;22.34;87.04;98474.41;5090911;28;20074;-74
2023/07/07 07:02:47;;;;;;;1999.90;999.90;;;;;;;22.28;88.60;98473.06;5091830;28;20028;-75
2023/07/07 07:05:13;;;;;;;1999.90;999.90;;;;;;;22.49;86.71;98472.78;5091900;28;20051;-74
2023/07/07 07:07:38;;;;;;;1999.90;999.90;;;;;;;22.63;86.84;98477.91;5092329;28;20477;-74
2023/07/07 07:10:04;;;;;;;1999.90;999.90;;;;;;;22.62;85.95;98479.06;5096618;28;20031;-74
2023/07/07 07:12:30;;;;;;;1999.90;999.90;;;;;;;22.72;85.42;98486.94;5092458;28;20168;-74
2023/07/07 07:14:55;;;;;;;1999.90;999.90;;;;;;;22.84;85.23;98486.81;5091800;28;20023;-73
2023/07/07 07:17:22;;;;;;;1999.90;999.90;;;;;;;22.92;84.60;98485.81;5091138;28;20035;-73
2023/07/07 07:19:48;;;;;;;1999.90;999.90;;;;;;;22.84;85.45;98489.59;5090968;28;20480;-73
2023/07/07 07:22:14;;;;;;;1999.90;999.90;;;;;;;22.87;85.50;98488.88;5091304;28;20042;-73
2023/07/07 07:24:39;;;;;;;1999.90;999.90;;;;;;;22.94;85.11;98498.25;5092509;28;20020;-74
2023/07/07 07:27:05;;;;;;;1999.90;999.90;;;;;;;22.86;85.63;98498.44;5093536;28;20039;-74
2023/07/07 07:29:31;;;;;;;1999.90;999.90;;;;;;;23.19;83.60;98500.78;5092124;28;20036;-72
2023/07/07 07:31:56;;;;;;;1999.90;999.90;;;;;;;23.00;82.65;98501.56;5090060;28;20032;-74
2023/07/07 07:34:28;;;;;;;1999.90;999.90;;;;;;;22.77;84.36;98501.41;5092421;28;20031;-76
2023/07/07 07:36:55;;;;;;;1999.90;999.90;;;;;;;22.72;83.35;98503.66;5093843;28;20039;-73
2023/07/07 07:39:21;;;;;;;1999.90;999.90;;;;;;;22.92;82.81;98503.38;5090863;28;20127;-77
2023/07/07 07:41:50;;;;;;;1999.90;999.90;;;;;;;23.54;77.36;98506.38;5091035;28;20028;-73
2023/07/07 07:44:16;;;;;;;1999.90;999.90;;;;;;;23.63;75.54;98515.34;5090511;28;20117;-73
2023/07/07 07:46:43;;;;;;;1999.90;999.90;;;;;;;23.81;75.97;98510.91;5090873;28;20111;-74
2023/07/07 07:49:09;;;;;;;1999.90;999.90;;;;;;;23.12;77.57;98514.59;5090638;28;20135;-75
2023/07/07 07:51:37;;;;;;;1999.90;999.90;;;;;;;23.15;79.16;98506.28;5090736;28;20110;-75
2023/07/07 07:54:04;;;;;;;1999.90;999.90;;;;;;;23.30;80.69;98516.63;5091206;28;20032;-74
2023/07/07 07:56:30;;;;;;;1999.90;999.90;;;;;;;23.30;80.18;98513.81;5089700;28;20036;-75
2023/07/07 07:58:55;;;;;;;1999.90;999.90;;;;;;;23.50;78.82;98514.66;5088998;28;20173;-75
2023/07/07 08:01:21;;;;;;;1999.90;999.90;;;;;;;23.40;80.07;98524.44;5088792;28;20623;-75
2023/07/07 08:03:46;;;;;;;1999.90;999.90;;;;;;;23.31;80.15;98528.56;5088979;28;20534;-75
2023/07/07 08:06:11;;;;;;;1999.90;999.90;;;;;;;23.27;81.37;98534.09;5088847;28;20555;-75
2023/07/07 08:08:37;;;;;;;1999.90;999.90;;;;;;;23.42;80.07;98538.84;5089412;28;20024;-75
2023/07/07 08:11:02;;;;;;;1999.90;999.90;;;;;;;23.56;79.80;98538.34;5089603;28;20213;-73
2023/07/07 08:13:28;;;;;;;1999.90;999.90;;;;;;;23.52;79.84;98537.47;5095111;28;20059;-75
2023/07/07 08:15:53;;;;;;;1999.90;999.90;;;;;;;23.61;78.76;98537.25;5095904;28;20113;-75
2023/07/07 08:18:18;;;;;;;1999.90;999.90;;;;;;;23.73;78.25;98534.31;5095376;28;20097;-74
2023/07/07 08:20:44;;;;;;;1999.90;999.90;;;;;;;23.77;75.86;98536.00;5094232;28;20202;-75
2023/07/07 08:23:10;;;;;;;1999.90;999.90;;;;;;;23.58;76.10;98541.59;5095015;28;20046;-75
2023/07/07 08:25:35;;;;;;;1999.90;999.90;;;;;;;23.62;76.56;98542.47;5095882;28;20099;-76
2023/07/07 08:28:01;;;;;;;1999.90;999.90;;;;;;;24.31;73.21;98546.25;5094691;28;20020;-76
2023/07/07 08:30:26;;;;;;;1999.90;999.90;;;;;;;25.96;66.20;98552.88;5094629;28;20423;-75
2023/07/07 08:32:52;;;;;;;1999.90;999.90;;;;;;;27.07;61.30;98551.63;5094689;28;20503;-73
2023/07/07 08:35:17;;;;;;;1999.90;999.90;;;;;;;29.20;54.40;98573.75;5094187;28;20464;-72
2023/07/07 08:37:43;;;;;;;1999.90;999.90;;;;;;;29.73;49.55;98582.16;5094568;28;20106;-76
2023/07/07 08:40:15;;;;;;;1999.90;999.90;;;;;;;31.78;44.10;98571.56;5092762;28;20020;-75
2023/07/07 08:42:41;;;;;;;1999.90;999.90;;;;;;;32.85;41.60;98583.94;5092977;28;20027;-76
2023/07/07 08:45:21;;;;;;;1999.90;999.90;;;;;;;33.25;40.34;98582.09;5093970;28;20020;-76
2023/07/07 08:48:24;;;;;;;1999.90;999.90;;;;;;;31.94;43.82;98576.63;5093631;28;20048;-75
2023/07/07 08:51:07;;;;;;;1999.90;999.90;;;;;;;31.91;43.03;98577.47;5093780;28;20032;-76
2023/07/07 08:53:49;;;;;;;1999.90;999.90;;;;;;;31.13;44.35;98566.94;5092437;28;20032;-76
2023/07/07 08:56:29;;;;;;;1999.90;999.90;;;;;;;31.53;43.38;98568.19;5092792;28;20032;-77
2023/07/07 08:59:12;;;;;;;1999.90;999.90;;;;;;;31.20;43.40;98572.53;5093757;28;20024;-75
2023/07/07 09:01:41;;;;;;;1999.90;999.90;;;;;;;32.33;40.90;98582.63;5094085;28;20107;-76
2023/07/07 09:04:21;;;;;;;1999.90;999.90;;;;;;;31.95;42.00;98576.22;5093909;28;20044;-77
2023/07/07 09:07:13;;;;;;;1999.90;999.90;;;;;;;30.68;44.48;98569.66;5093807;28;20036;-77
2023/07/07 09:09:58;;;;;;;1999.90;999.90;;;;;;;31.54;42.39;98575.47;5093977;28;20024;-76
2023/07/07 09:12:50;;;;;;;1999.90;999.90;;;;;;;31.52;41.96;98564.56;5094016;28;20024;-77
2023/07/07 09:15:23;;;;;;;1999.90;999.90;;;;;;;30.35;44.25;98566.63;5094404;28;20044;-75
2023/07/07 09:17:55;;;;;;;1999.90;999.90;;;;;;;30.75;43.29;98563.97;5102539;28;20035;-78
2023/07/07 09:20:23;;;;;;;1999.90;999.90;;;;;;;30.95;43.04;98567.06;5101816;28;20024;-76
2023/07/07 09:22:59;;;;;;;1999.90;999.90;;;;;;;32.79;39.95;98565.00;5093199;28;20038;-77
2023/07/07 09:25:42;;;;;;;1999.90;999.90;;;;;;;31.88;39.11;98572.66;5093079;28;20480;-75
2023/07/07 09:28:14;;;;;;;1999.90;999.90;;;;;;;30.87;41.48;98564.69;5093192;28;20066;-75
2023/07/07 09:30:47;;;;;;;1999.90;999.90;;;;;;;29.41;46.15;98550.41;5093081;28;20016;-77
2023/07/07 09:33:16;;;;;;;1999.90;999.90;;;;;;;29.63;45.61;98559.63;5093020;28;20043;-75
2023/07/07 09:36:05;;;;;;;1999.90;999.90;;;;;;;32.09;41.93;98550.59;5093063;28;20020;-76
2023/07/07 09:38:43;;;;;;;1999.90;999.90;;;;;;;30.76;42.90;98551.44;5083263;28;20048;-78
2023/07/07 09:41:25;;;;;;;1999.90;999.90;;;;;;;31.40;41.54;98558.59;5098588;28;20073;-77
2023/07/07 09:43:53;;;;;;;1999.90;999.90;;;;;;;30.53;43.36;98556.84;5098762;28;20052;-77
2023/07/07 09:46:53;;;;;;;1999.90;999.90;;;;;;;31.01;43.42;98553.31;5094649;28;20032;-78
2023/07/07 09:49:43;;;;;;;1999.90;999.90;;;;;;;30.92;41.83;98555.78;5092709;28;20496;-75
2023/07/07 09:52:31;;;;;;;1999.90;999.90;;;;;;;30.98;42.45;98556.97;5092753;28;20073;-76
2023/07/07 09:54:58;;;;;;;1999.90;999.90;;;;;;;31.21;41.10;98557.16;5093293;28;20028;-73
2023/07/07 09:57:26;;;;;;;1999.90;999.90;;;;;;;31.21;41.79;98548.66;5093154;28;20696;-80
2023/07/07 09:59:55;;;;;;;1999.90;999.90;;;;;;;31.73;41.39;98550.16;5092815;28;20073;-75
2023/07/07 10:02:23;;;;;;;1999.90;999.90;;;;;;;32.55;40.47;98554.81;5092885;28;20059;-76
2023/07/07 10:04:56;;;;;;;1999.90;999.90;;;;;;;31.27;41.86;98552.66;5092605;28;20417;-77
2023/07/07 10:07:25;;;;;;;1999.90;999.90;;;;;;;31.35;40.70;98545.72;5091943;28;20035;-76
2023/07/07 10:09:50;;;;;;;1999.90;999.90;;;;;;;30.18;42.06;98551.38;5092495;28;20472;-73
2023/07/07 10:12:17;;;;;;;1999.90;999.90;;;;;;;31.13;40.59;98541.50;5092386;28;20024;-76
2023/07/07 10:14:43;;;;;;;1999.90;999.90;;;;;;;30.53;42.01;98537.09;5092265;28;20031;-72
2023/07/07 10:17:09;;;;;;;1999.90;999.90;;;;;;;29.28;44.88;98543.59;5092176;28;20028;-71
2023/07/07 10:19:40;;;;;;;1999.90;999.90;;;;;;;29.93;42.83;98545.03;5092315;28;20020;-71
2023/07/07 10:22:07;;;;;;;1999.90;999.90;;;;;;;30.71;40.69;98551.88;5092103;28;20028;-73
2023/07/07 10:24:34;;;;;;;1999.90;999.90;;;;;;;28.83;44.44;98533.09;5092253;28;20376;-73
2023/07/07 10:27:00;;;;;;;1999.90;999.90;;;;;;;29.39;44.22;98544.38;5092146;28;20032;-72
2023/07/07 10:29:33;;;;;;;1999.90;999.90;;;;;;;27.33;49.91;98535.75;5090764;28;20027;-73
2023/07/07 10:31:58;;;;;;;1999.90;999.90;;;;;;;28.08;48.95;98527.34;5092094;28;20089;-73
2023/07/07 10:34:32;;;;;;;1999.90;999.90;;;;;;;27.98;48.08;98530.06;5091619;28;20473;-74
2023/07/07 10:36:58;;;;;;;1999.90;999.90;;;;;;;27.16;49.54;98523.19;5092169;28;20032;-74
2023/07/07 10:39:26;;;;;;;1999.90;999.90;;;;;;;26.39;51.26;98521.34;5091913;28;20150;-72
2023/07/07 10:41:51;;;;;;;1999.90;999.90;;;;;;;26.50;50.09;98516.63;5091471;28;20599;-72
2023/07/07 10:44:17;;;;;;;1999.90;999.90;;;;;;;26.74;51.80;98520.84;5088632;28;20112;-73
2023/07/07 10:46:43;;;;;;;1999.90;999.90;;;;;;;27.35;51.41;98522.09;5091847;28;20469;-71
2023/07/07 10:49:14;;;;;;;1999.90;999.90;;;;;;;27.21;50.73;98505.97;5091285;28;20404;-72
2023/07/07 10:52:03;;;;;;;1999.90;999.90;;;;;;;27.02;50.36;98523.09;5091530;28;20122;-72
2023/07/07 10:54:34;;;;;;;1999.90;999.90;;;;;;;26.73;50.01;98510.81;5091817;28;20134;-70
2023/07/07 10:57:21;;;;;;;1999.90;999.90;;;;;;;26.79;51.31;98505.63;5091711;28;20051;-74